sensor_id;sensor_type;location;lat;lon;timestamp;pressure;altitude;pressure_sealevel;temperature;humidity
16355;BME280;8287;51.644;8.494;2024-01-30T00:01:51;101548.78;;;9.31;100.00
16355;BME280;8287;51.644;8.494;2024-01-30T00:04:18;101551.69;;;9.20;100.00
16355;BME280;8287;51.644;8.494;2024-01-30T00:06:45;101551.72;;;9.25;100.00
16355;BME280;8287;51.644;8.494;2024-01-30T00:09:12;101560.69;;;9.19;100.00
16355;BME280;8287;51.644;8.494;2024-01-30T00:11:39;101549.84;;;9.05;100.00
16355;BME280;8287;51.644;8.494;2024-01-30T00:14:05;101549.56;;;8.82;100.00
16355;BME280;8287;51.644;8.494;2024-01-30T00:16:32;101546.13;;;8.86;100.00
16355;BME280;8287;51.644;8.494;2024-01-30T00:18:59;101545.06;;;8.77;100.00
16355;BME280;8287;51.644;8.494;2024-01-30T00:21:28;101551.41;;;8.76;100.00
16355;BME280;8287;51.644;8.494;2024-01-30T00:23:55;101546.66;;;8.83;100.00
16355;BME280;8287;51.644;8.494;2024-01-30T00:26:21;101551.94;;;8.83;100.00
16355;BME280;8287;51.644;8.494;2024-01-30T00:28:48;101542.69;;;8.76;100.00
16355;BME280;8287;51.644;8.494;2024-01-30T00:31:15;101543.47;;;8.91;100.00
16355;BME280;8287;51.644;8.494;2024-01-30T00:33:41;101546.94;;;8.92;100.00
16355;BME280;8287;51.644;8.494;2024-01-30T00:36:09;101540.56;;;8.88;100.00
16355;BME280;8287;51.644;8.494;2024-01-30T00:38:37;101537.66;;;8.74;100.00
16355;BME280;8287;51.644;8.494;2024-01-30T00:41:04;101541.63;;;8.72;100.00
16355;BME280;8287;51.644;8.494;2024-01-30T00:43:32;101544.53;;;8.80;100.00
16355;BME280;8287;51.644;8.494;2024-01-30T00:45:59;101547.19;;;8.80;100.00
16355;BME280;8287;51.644;8.494;2024-01-30T00:48:26;101543.75;;;8.75;100.00
16355;BME280;8287;51.644;8.494;2024-01-30T00:50:52;101539.22;;;8.65;100.00
16355;BME280;8287;51.644;8.494;2024-01-30T00:53:19;101546.88;;;8.57;100.00
16355;BME280;8287;51.644;8.494;2024-01-30T00:55:47;101544.94;;;8.32;100.00
16355;BME280;8287;51.644;8.494;2024-01-30T00:58:13;101549.72;;;8.35;100.00
16355;BME280;8287;51.644;8.494;2024-01-30T01:00:40;101550.22;;;8.27;100.00
16355;BME280;8287;51.644;8.494;2024-01-30T01:03:06;101551.50;;;8.20;100.00
16355;BME280;8287;51.644;8.494;2024-01-30T01:05:34;101553.25;;;8.04;100.00
16355;BME280;8287;51.644;8.494;2024-01-30T01:08:00;101547.97;;;8.04;100.00
16355;BME280;8287;51.644;8.494;2024-01-30T01:10:27;101555.38;;;8.07;100.00
16355;BME280;8287;51.644;8.494;2024-01-30T01:12:55;101551.34;;;7.95;100.00
16355;BME280;8287;51.644;8.494;2024-01-30T01:15:21;101544.22;;;7.90;100.00
16355;BME280;8287;51.644;8.494;2024-01-30T01:17:48;101548.72;;;7.90;100.00
16355;BME280;8287;51.644;8.494;2024-01-30T01:20:15;101550.31;;;7.96;100.00
16355;BME280;8287;51.644;8.494;2024-01-30T01:22:41;101545.03;;;7.96;100.00
16355;BME280;8287;51.644;8.494;2024-01-30T01:25:08;101544.78;;;7.92;100.00
16355;BME280;8287;51.644;8.494;2024-01-30T01:27:35;101548.19;;;7.93;100.00
16355;BME280;8287;51.644;8.494;2024-01-30T01:30:09;101548.50;;;8.01;100.00
16355;BME280;8287;51.644;8.494;2024-01-30T01:32:36;101539.03;;;8.10;100.00
16355;BME280;8287;51.644;8.494;2024-01-30T01:35:04;101551.25;;;8.21;100.00
16355;BME280;8287;51.644;8.494;2024-01-30T01:37:30;101537.25;;;8.21;100.00
16355;BME280;8287;51.644;8.494;2024-01-30T01:39:57;101538.25;;;8.15;100.00
16355;BME280;8287;51.644;8.494;2024-01-30T01:42:23;101539.03;;;8.15;100.00
16355;BME280;8287;51.644;8.494;2024-01-30T01:44:50;101545.44;;;8.24;100.00
16355;BME280;8287;51.644;8.494;2024-01-30T01:47:18;101538.56;;;8.23;100.00
16355;BME280;8287;51.644;8.494;2024-01-30T01:49:44;101538.97;;;8.00;100.00
16355;BME280;8287;51.644;8.494;2024-01-30T01:52:11;101537.94;;;8.06;100.00
16355;BME280;8287;51.644;8.494;2024-01-30T01:54:38;101541.91;;;8.04;100.00
16355;BME280;8287;51.644;8.494;2024-01-30T01:57:04;101536.53;;;7.84;100.00
16355;BME280;8287;51.644;8.494;2024-01-30T01:59:32;101532.88;;;7.95;100.00
16355;BME280;8287;51.644;8.494;2024-01-30T02:01:58;101534.22;;;7.97;100.00
16355;BME280;8287;51.644;8.494;2024-01-30T02:04:28;101525.34;;;8.18;100.00
16355;BME280;8287;51.644;8.494;2024-01-30T02:06:55;101518.84;;;8.41;100.00
16355;BME280;8287;51.644;8.494;2024-01-30T02:09:22;101520.47;;;8.67;100.00
16355;BME280;8287;51.644;8.494;2024-01-30T02:11:48;101515.47;;;8.90;100.00
16355;BME280;8287;51.644;8.494;2024-01-30T02:14:15;101514.41;;;9.16;100.00
16355;BME280;8287;51.644;8.494;2024-01-30T02:16:41;101511.75;;;9.36;100.00
16355;BME280;8287;51.644;8.494;2024-01-30T02:19:08;101506.72;;;9.50;100.00
16355;BME280;8287;51.644;8.494;2024-01-30T02:21:36;101508.25;;;9.61;100.00
16355;BME280;8287;51.644;8.494;2024-01-30T02:24:03;101510.06;;;9.75;100.00
16355;BME280;8287;51.644;8.494;2024-01-30T02:26:31;101514.56;;;9.84;100.00
16355;BME280;8287;51.644;8.494;2024-01-30T02:28:58;101514.25;;;9.96;99.21
16355;BME280;8287;51.644;8.494;2024-01-30T02:31:25;101502.06;;;10.05;98.62
16355;BME280;8287;51.644;8.494;2024-01-30T02:33:51;101503.63;;;10.11;98.35
16355;BME280;8287;51.644;8.494;2024-01-30T02:36:18;101502.31;;;10.08;97.96
16355;BME280;8287;51.644;8.494;2024-01-30T02:38:46;101497.53;;;10.15;97.69
16355;BME280;8287;51.644;8.494;2024-01-30T02:41:12;101499.31;;;10.25;97.18
16355;BME280;8287;51.644;8.494;2024-01-30T02:43:39;101500.06;;;10.30;96.36
16355;BME280;8287;51.644;8.494;2024-01-30T02:46:06;101494.50;;;10.37;95.95
16355;BME280;8287;51.644;8.494;2024-01-30T02:48:32;101489.13;;;10.42;95.84
16355;BME280;8287;51.644;8.494;2024-01-30T02:50:59;101488.56;;;10.50;95.64
16355;BME280;8287;51.644;8.494;2024-01-30T02:53:25;101484.38;;;10.44;94.68
16355;BME280;8287;51.644;8.494;2024-01-30T02:55:53;101487.56;;;10.41;95.13
16355;BME280;8287;51.644;8.494;2024-01-30T02:58:19;101470.66;;;10.37;95.32
16355;BME280;8287;51.644;8.494;2024-01-30T03:00:46;101472.66;;;10.50;94.98
16355;BME280;8287;51.644;8.494;2024-01-30T03:03:13;101469.19;;;10.54;94.47
16355;BME280;8287;51.644;8.494;2024-01-30T03:05:39;101467.41;;;10.45;94.33
16355;BME280;8287;51.644;8.494;2024-01-30T03:08:06;101467.09;;;10.51;94.23
16355;BME280;8287;51.644;8.494;2024-01-30T03:10:33;101462.22;;;10.63;93.63
16355;BME280;8287;51.644;8.494;2024-01-30T03:13:00;101466.19;;;10.66;93.28
16355;BME280;8287;51.644;8.494;2024-01-30T03:15:27;101459.88;;;10.62;93.26
16355;BME280;8287;51.644;8.494;2024-01-30T03:17:53;101464.34;;;10.66;93.51
16355;BME280;8287;51.644;8.494;2024-01-30T03:20:20;101460.34;;;10.69;92.99
16355;BME280;8287;51.644;8.494;2024-01-30T03:22:47;101455.56;;;10.71;93.08
16355;BME280;8287;51.644;8.494;2024-01-30T03:25:13;101460.13;;;10.65;93.33
16355;BME280;8287;51.644;8.494;2024-01-30T03:27:40;101459.78;;;10.72;93.05
16355;BME280;8287;51.644;8.494;2024-01-30T03:30:09;101452.63;;;10.72;92.83
16355;BME280;8287;51.644;8.494;2024-01-30T03:32:35;101454.72;;;10.75;92.45
16355;BME280;8287;51.644;8.494;2024-01-30T03:35:02;101453.94;;;10.75;92.53
16355;BME280;8287;51.644;8.494;2024-01-30T03:37:29;101447.53;;;10.81;91.81
16355;BME280;8287;51.644;8.494;2024-01-30T03:39:56;101455.47;;;10.81;91.94
16355;BME280;8287;51.644;8.494;2024-01-30T03:42:23;101450.19;;;10.76;92.17
16355;BME280;8287;51.644;8.494;2024-01-30T03:44:49;101443.09;;;10.71;92.06
16355;BME280;8287;51.644;8.494;2024-01-30T03:47:18;101441.19;;;10.77;91.83
16355;BME280;8287;51.644;8.494;2024-01-30T03:49:45;101441.50;;;10.70;91.99
16355;BME280;8287;51.644;8.494;2024-01-30T03:52:11;101446.22;;;10.78;92.22
16355;BME280;8287;51.644;8.494;2024-01-30T03:54:38;101439.06;;;10.79;92.28
16355;BME280;8287;51.644;8.494;2024-01-30T03:57:04;101430.38;;;10.73;92.34
16355;BME280;8287;51.644;8.494;2024-01-30T03:59:31;101434.53;;;10.79;91.90
16355;BME280;8287;51.644;8.494;2024-01-30T04:01:57;101431.53;;;10.91;91.92
16355;BME280;8287;51.644;8.494;2024-01-30T04:04:26;101427.28;;;10.90;91.12
16355;BME280;8287;51.644;8.494;2024-01-30T04:06:52;101425.72;;;10.89;91.51
16355;BME280;8287;51.644;8.494;2024-01-30T04:09:19;101423.03;;;10.94;91.56
16355;BME280;8287;51.644;8.494;2024-01-30T04:11:45;101420.06;;;10.95;91.17
16355;BME280;8287;51.644;8.494;2024-01-30T04:14:12;101427.03;;;10.91;91.49
16355;BME280;8287;51.644;8.494;2024-01-30T04:16:39;101423.47;;;11.01;91.08
16355;BME280;8287;51.644;8.494;2024-01-30T04:19:05;101415.28;;;10.97;91.14
16355;BME280;8287;51.644;8.494;2024-01-30T04:21:33;101420.03;;;11.00;90.85
16355;BME280;8287;51.644;8.494;2024-01-30T04:23:59;101418.13;;;11.06;90.63
16355;BME280;8287;51.644;8.494;2024-01-30T04:26:26;101415.97;;;11.08;90.32
16355;BME280;8287;51.644;8.494;2024-01-30T04:28:53;101422.84;;;11.09;90.09
16355;BME280;8287;51.644;8.494;2024-01-30T04:31:19;101415.44;;;11.11;89.86
16355;BME280;8287;51.644;8.494;2024-01-30T04:33:46;101414.34;;;11.12;90.25
16355;BME280;8287;51.644;8.494;2024-01-30T04:36:12;101418.81;;;11.16;90.33
16355;BME280;8287;51.644;8.494;2024-01-30T04:38:40;101418.75;;;11.21;89.49
16355;BME280;8287;51.644;8.494;2024-01-30T04:41:07;101411.47;;;11.08;89.65
16355;BME280;8287;51.644;8.494;2024-01-30T04:43:33;101417.00;;;11.12;90.08
16355;BME280;8287;51.644;8.494;2024-01-30T04:46:00;101422.56;;;11.15;90.00
16355;BME280;8287;51.644;8.494;2024-01-30T04:48:26;101416.94;;;11.17;89.72
16355;BME280;8287;51.644;8.494;2024-01-30T04:50:53;101411.97;;;11.10;90.14
16355;BME280;8287;51.644;8.494;2024-01-30T04:53:21;101416.69;;;11.18;90.17
16355;BME280;8287;51.644;8.494;2024-01-30T04:55:49;101414.28;;;11.17;89.56
16355;BME280;8287;51.644;8.494;2024-01-30T04:58:15;101420.09;;;11.19;89.57
16355;BME280;8287;51.644;8.494;2024-01-30T05:00:42;101420.06;;;11.24;89.57
16355;BME280;8287;51.644;8.494;2024-01-30T05:03:08;101422.47;;;11.20;89.54
16355;BME280;8287;51.644;8.494;2024-01-30T05:05:35;101416.44;;;11.15;90.07
16355;BME280;8287;51.644;8.494;2024-01-30T05:08:01;101415.44;;;11.11;89.99
16355;BME280;8287;51.644;8.494;2024-01-30T05:10:28;101424.13;;;11.16;89.40
16355;BME280;8287;51.644;8.494;2024-01-30T05:12:56;101426.09;;;11.06;89.93
16355;BME280;8287;51.644;8.494;2024-01-30T05:15:22;101427.63;;;11.12;89.72
16355;BME280;8287;51.644;8.494;2024-01-30T05:17:49;101426.53;;;11.13;89.44
16355;BME280;8287;51.644;8.494;2024-01-30T05:20:16;101423.44;;;11.06;90.16
16355;BME280;8287;51.644;8.494;2024-01-30T05:22:43;101421.19;;;11.18;89.69
16355;BME280;8287;51.644;8.494;2024-01-30T05:25:10;101420.22;;;11.09;90.01
16355;BME280;8287;51.644;8.494;2024-01-30T05:27:37;101415.75;;;11.04;90.00
16355;BME280;8287;51.644;8.494;2024-01-30T05:30:06;101420.91;;;11.19;89.67
16355;BME280;8287;51.644;8.494;2024-01-30T05:32:33;101413.63;;;11.30;89.33
16355;BME280;8287;51.644;8.494;2024-01-30T05:34:59;101408.44;;;11.20;88.97
16355;BME280;8287;51.644;8.494;2024-01-30T05:37:26;101407.25;;;11.31;88.94
16355;BME280;8287;51.644;8.494;2024-01-30T05:39:52;101418.88;;;11.35;89.20
16355;BME280;8287;51.644;8.494;2024-01-30T05:42:19;101419.31;;;11.42;88.86
16355;BME280;8287;51.644;8.494;2024-01-30T05:44:45;101412.53;;;11.36;88.89
16355;BME280;8287;51.644;8.494;2024-01-30T05:47:13;101416.41;;;11.43;88.58
16355;BME280;8287;51.644;8.494;2024-01-30T05:49:40;101409.88;;;11.54;88.11
16355;BME280;8287;51.644;8.494;2024-01-30T05:52:07;101409.13;;;11.54;87.41
16355;BME280;8287;51.644;8.494;2024-01-30T05:54:34;101416.84;;;11.50;87.87
16355;BME280;8287;51.644;8.494;2024-01-30T05:57:01;101415.78;;;11.51;87.69
16355;BME280;8287;51.644;8.494;2024-01-30T05:59:28;101398.19;;;11.55;87.80
16355;BME280;8287;51.644;8.494;2024-01-30T06:01:54;101407.53;;;11.53;87.70
16355;BME280;8287;51.644;8.494;2024-01-30T06:04:23;101407.25;;;11.54;88.03
16355;BME280;8287;51.644;8.494;2024-01-30T06:06:49;101408.22;;;11.63;87.24
16355;BME280;8287;51.644;8.494;2024-01-30T06:09:16;101407.66;;;11.66;86.69
16355;BME280;8287;51.644;8.494;2024-01-30T06:11:42;101407.44;;;11.63;87.35
16355;BME280;8287;51.644;8.494;2024-01-30T06:14:09;101403.13;;;11.67;86.74
16355;BME280;8287;51.644;8.494;2024-01-30T06:16:35;101402.13;;;11.63;87.16
16355;BME280;8287;51.644;8.494;2024-01-30T06:19:02;101405.88;;;11.57;87.43
16355;BME280;8287;51.644;8.494;2024-01-30T06:21:30;101409.47;;;11.71;86.49
16355;BME280;8287;51.644;8.494;2024-01-30T06:23:57;101406.59;;;11.67;86.45
16355;BME280;8287;51.644;8.494;2024-01-30T06:26:24;101402.69;;;11.60;86.65
16355;BME280;8287;51.644;8.494;2024-01-30T06:28:50;101398.31;;;11.69;86.46
16355;BME280;8287;51.644;8.494;2024-01-30T06:31:17;101399.13;;;11.69;86.16
16355;BME280;8287;51.644;8.494;2024-01-30T06:33:43;101395.28;;;11.57;87.00
16355;BME280;8287;51.644;8.494;2024-01-30T06:36:10;101394.78;;;11.55;86.73
16355;BME280;8287;51.644;8.494;2024-01-30T06:38:37;101389.00;;;11.48;86.98
16355;BME280;8287;51.644;8.494;2024-01-30T06:41:04;101387.44;;;11.47;87.54
16355;BME280;8287;51.644;8.494;2024-01-30T06:43:30;101389.75;;;11.53;87.02
16355;BME280;8287;51.644;8.494;2024-01-30T06:45:57;101382.00;;;11.57;86.61
16355;BME280;8287;51.644;8.494;2024-01-30T06:48:24;101378.84;;;11.55;87.01
16355;BME280;8287;51.644;8.494;2024-01-30T06:50:53;101381.28;;;11.51;86.96
16355;BME280;8287;51.644;8.494;2024-01-30T06:53:19;101392.88;;;11.37;87.61
16355;BME280;8287;51.644;8.494;2024-01-30T06:55:47;101390.50;;;11.35;87.91
16355;BME280;8287;51.644;8.494;2024-01-30T06:58:14;101386.63;;;11.46;87.78
16355;BME280;8287;51.644;8.494;2024-01-30T07:00:40;101382.84;;;11.57;87.34
16355;BME280;8287;51.644;8.494;2024-01-30T07:03:07;101387.56;;;11.55;87.44
16355;BME280;8287;51.644;8.494;2024-01-30T07:05:33;101387.69;;;11.69;86.35
16355;BME280;8287;51.644;8.494;2024-01-30T07:08:00;101388.13;;;11.57;86.78
16355;BME280;8287;51.644;8.494;2024-01-30T07:10:26;101377.53;;;11.57;87.27
16355;BME280;8287;51.644;8.494;2024-01-30T07:12:54;101375.38;;;11.54;86.90
16355;BME280;8287;51.644;8.494;2024-01-30T07:15:21;101373.72;;;11.63;86.88
16355;BME280;8287;51.644;8.494;2024-01-30T07:17:47;101381.91;;;11.67;87.03
16355;BME280;8287;51.644;8.494;2024-01-30T07:20:14;101380.19;;;11.76;86.82
16355;BME280;8287;51.644;8.494;2024-01-30T07:22:40;101381.44;;;11.60;87.04
16355;BME280;8287;51.644;8.494;2024-01-30T07:25:07;101379.09;;;11.58;86.77
16355;BME280;8287;51.644;8.494;2024-01-30T07:27:34;101381.25;;;11.75;86.51
16355;BME280;8287;51.644;8.494;2024-01-30T07:30:02;101385.41;;;11.62;87.39
16355;BME280;8287;51.644;8.494;2024-01-30T07:32:29;101382.28;;;11.79;86.48
16355;BME280;8287;51.644;8.494;2024-01-30T07:34:56;101386.22;;;11.81;86.02
16355;BME280;8287;51.644;8.494;2024-01-30T07:37:22;101384.63;;;11.80;86.16
16355;BME280;8287;51.644;8.494;2024-01-30T07:39:49;101385.94;;;11.83;86.18
16355;BME280;8287;51.644;8.494;2024-01-30T07:42:16;101384.84;;;11.84;85.92
16355;BME280;8287;51.644;8.494;2024-01-30T07:44:42;101395.69;;;11.87;86.23
16355;BME280;8287;51.644;8.494;2024-01-30T07:47:10;101391.41;;;11.91;85.81
16355;BME280;8287;51.644;8.494;2024-01-30T07:49:37;101395.41;;;11.89;85.94
16355;BME280;8287;51.644;8.494;2024-01-30T07:52:04;101403.19;;;12.04;85.28
16355;BME280;8287;51.644;8.494;2024-01-30T07:54:31;101398.44;;;12.01;85.76
16355;BME280;8287;51.644;8.494;2024-01-30T08:03:44;101396.44;;;12.11;84.76
16355;BME280;8287;51.644;8.494;2024-01-30T08:06:10;101398.09;;;12.07;85.63
16355;BME280;8287;51.644;8.494;2024-01-30T08:08:37;101397.72;;;12.14;85.28
16355;BME280;8287;51.644;8.494;2024-01-30T08:11:04;101389.75;;;12.14;85.66
16355;BME280;8287;51.644;8.494;2024-01-30T08:13:30;101397.28;;;12.07;85.71
16355;BME280;8287;51.644;8.494;2024-01-30T08:15:56;101385.53;;;12.13;85.69
16355;BME280;8287;51.644;8.494;2024-01-30T08:18:23;101382.78;;;12.18;85.40
16355;BME280;8287;51.644;8.494;2024-01-30T08:20:51;101381.19;;;12.17;85.68
16355;BME280;8287;51.644;8.494;2024-01-30T08:23:17;101380.69;;;12.15;86.20
16355;BME280;8287;51.644;8.494;2024-01-30T08:25:44;101383.56;;;12.18;85.79
16355;BME280;8287;51.644;8.494;2024-01-30T08:28:10;101379.41;;;12.12;86.18
16355;BME280;8287;51.644;8.494;2024-01-30T08:30:37;101377.19;;;12.19;86.05
16355;BME280;8287;51.644;8.494;2024-01-30T08:33:04;101375.72;;;12.27;85.97
16355;BME280;8287;51.644;8.494;2024-01-30T08:35:30;101387.41;;;12.44;85.57
16355;BME280;8287;51.644;8.494;2024-01-30T08:38:00;101388.53;;;12.57;84.49
16355;BME280;8287;51.644;8.494;2024-01-30T08:40:26;101383.81;;;12.54;84.72
16355;BME280;8287;51.644;8.494;2024-01-30T08:42:54;101398.72;;;12.68;84.61
16355;BME280;8287;51.644;8.494;2024-01-30T08:45:20;101395.19;;;12.73;84.34
16355;BME280;8287;51.644;8.494;2024-01-30T08:47:47;101404.34;;;12.80;84.16
16355;BME280;8287;51.644;8.494;2024-01-30T08:50:13;101408.78;;;12.85;83.70
16355;BME280;8287;51.644;8.494;2024-01-30T08:52:40;101411.97;;;12.87;84.32
16355;BME280;8287;51.644;8.494;2024-01-30T08:55:08;101417.78;;;12.89;84.43
16355;BME280;8287;51.644;8.494;2024-01-30T08:57:35;101425.97;;;12.92;85.00
16355;BME280;8287;51.644;8.494;2024-01-30T09:00:01;101418.72;;;12.98;84.35
16355;BME280;8287;51.644;8.494;2024-01-30T09:02:31;101417.97;;;12.79;84.41
16355;BME280;8287;51.644;8.494;2024-01-30T09:04:58;101419.06;;;12.91;85.68
16355;BME280;8287;51.644;8.494;2024-01-30T09:07:25;101417.69;;;12.94;84.93
16355;BME280;8287;51.644;8.494;2024-01-30T09:09:51;101421.38;;;12.98;84.92
16355;BME280;8287;51.644;8.494;2024-01-30T09:12:19;101425.16;;;13.10;85.28
16355;BME280;8287;51.644;8.494;2024-01-30T09:14:45;101422.56;;;13.18;84.63
16355;BME280;8287;51.644;8.494;2024-01-30T09:17:12;101415.13;;;13.21;83.72
16355;BME280;8287;51.644;8.494;2024-01-30T09:19:40;101420.72;;;13.32;83.70
16355;BME280;8287;51.644;8.494;2024-01-30T09:22:06;101423.50;;;13.41;83.67
16355;BME280;8287;51.644;8.494;2024-01-30T09:24:33;101420.31;;;13.52;83.93
16355;BME280;8287;51.644;8.494;2024-01-30T09:26:59;101417.84;;;13.56;83.92
16355;BME280;8287;51.644;8.494;2024-01-30T09:29:27;101419.72;;;13.69;83.33
16355;BME280;8287;51.644;8.494;2024-01-30T09:31:54;101423.28;;;13.78;83.21
16355;BME280;8287;51.644;8.494;2024-01-30T09:34:20;101416.06;;;13.78;82.79
16355;BME280;8287;51.644;8.494;2024-01-30T09:36:47;101416.16;;;13.87;83.36
16355;BME280;8287;51.644;8.494;2024-01-30T09:39:13;101403.50;;;13.92;83.57
16355;BME280;8287;51.644;8.494;2024-01-30T09:41:45;101406.38;;;13.96;82.79
16355;BME280;8287;51.644;8.494;2024-01-30T09:44:13;101413.16;;;14.02;83.23
16355;BME280;8287;51.644;8.494;2024-01-30T09:46:43;101410.28;;;14.12;83.85
16355;BME280;8287;51.644;8.494;2024-01-30T09:49:12;101409.34;;;14.30;82.59
16355;BME280;8287;51.644;8.494;2024-01-30T09:51:39;101412.09;;;14.38;82.20
16355;BME280;8287;51.644;8.494;2024-01-30T09:54:08;101405.84;;;14.43;82.27
16355;BME280;8287;51.644;8.494;2024-01-30T09:56:36;101411.84;;;14.48;81.67
16355;BME280;8287;51.644;8.494;2024-01-30T09:59:02;101411.84;;;14.48;81.63
16355;BME280;8287;51.644;8.494;2024-01-30T10:01:29;101412.81;;;14.52;82.00
16355;BME280;8287;51.644;8.494;2024-01-30T10:03:58;101413.16;;;14.59;82.05
16355;BME280;8287;51.644;8.494;2024-01-30T10:06:25;101417.00;;;14.67;81.05
16355;BME280;8287;51.644;8.494;2024-01-30T10:08:52;101415.59;;;14.69;81.18
16355;BME280;8287;51.644;8.494;2024-01-30T10:11:19;101419.22;;;14.73;80.73
16355;BME280;8287;51.644;8.494;2024-01-30T10:13:46;101409.84;;;14.76;81.00
16355;BME280;8287;51.644;8.494;2024-01-30T10:16:13;101418.34;;;14.86;79.97
16355;BME280;8287;51.644;8.494;2024-01-30T10:18:41;101403.31;;;14.90;79.73
16355;BME280;8287;51.644;8.494;2024-01-30T10:21:09;101417.16;;;14.92;79.77
16355;BME280;8287;51.644;8.494;2024-01-30T10:23:36;101418.78;;;15.02;79.60
16355;BME280;8287;51.644;8.494;2024-01-30T10:26:02;101421.75;;;15.00;79.35
16355;BME280;8287;51.644;8.494;2024-01-30T10:28:30;101420.91;;;14.91;79.20
16355;BME280;8287;51.644;8.494;2024-01-30T10:30:59;101430.00;;;14.90;79.08
16355;BME280;8287;51.644;8.494;2024-01-30T10:33:26;101434.63;;;15.07;78.94
16355;BME280;8287;51.644;8.494;2024-01-30T10:35:55;101436.91;;;15.13;78.48
16355;BME280;8287;51.644;8.494;2024-01-30T10:38:28;101428.53;;;15.06;78.29
16355;BME280;8287;51.644;8.494;2024-01-30T10:40:56;101434.53;;;15.12;77.91
16355;BME280;8287;51.644;8.494;2024-01-30T10:43:24;101426.06;;;15.18;77.82
16355;BME280;8287;51.644;8.494;2024-01-30T10:45:57;101426.69;;;15.15;77.58
16355;BME280;8287;51.644;8.494;2024-01-30T10:48:29;101430.19;;;15.24;77.41
16355;BME280;8287;51.644;8.494;2024-01-30T10:50:59;101421.38;;;15.24;76.65
16355;BME280;8287;51.644;8.494;2024-01-30T10:53:27;101414.88;;;15.38;77.15
16355;BME280;8287;51.644;8.494;2024-01-30T10:55:55;101414.25;;;15.41;77.36
16355;BME280;8287;51.644;8.494;2024-01-30T10:58:23;101414.13;;;15.55;76.35
16355;BME280;8287;51.644;8.494;2024-01-30T11:00:50;101422.31;;;15.67;75.80
16355;BME280;8287;51.644;8.494;2024-01-30T11:03:17;101414.00;;;15.68;76.32
16355;BME280;8287;51.644;8.494;2024-01-30T11:05:49;101411.03;;;15.70;76.32
16355;BME280;8287;51.644;8.494;2024-01-30T11:08:22;101414.94;;;15.55;76.01
16355;BME280;8287;51.644;8.494;2024-01-30T11:10:55;101406.47;;;15.70;74.89
16355;BME280;8287;51.644;8.494;2024-01-30T11:13:21;101409.94;;;15.79;75.58
16355;BME280;8287;51.644;8.494;2024-01-30T11:15:48;101402.88;;;15.83;75.98
16355;BME280;8287;51.644;8.494;2024-01-30T11:18:23;101403.69;;;15.92;76.09
16355;BME280;8287;51.644;8.494;2024-01-30T11:20:49;101403.69;;;15.92;75.15
16355;BME280;8287;51.644;8.494;2024-01-30T11:23:16;101400.53;;;15.99;75.42
16355;BME280;8287;51.644;8.494;2024-01-30T11:25:43;101395.19;;;16.07;74.26
16355;BME280;8287;51.644;8.494;2024-01-30T11:28:14;101392.50;;;16.16;74.96
16355;BME280;8287;51.644;8.494;2024-01-30T11:30:41;101395.03;;;16.12;74.67
16355;BME280;8287;51.644;8.494;2024-01-30T11:33:09;101401.03;;;16.18;73.24
16355;BME280;8287;51.644;8.494;2024-01-30T11:35:37;101399.28;;;16.30;74.45
16355;BME280;8287;51.644;8.494;2024-01-30T11:38:06;101405.25;;;16.27;73.22
16355;BME280;8287;51.644;8.494;2024-01-30T11:40:33;101404.81;;;16.42;72.21
16355;BME280;8287;51.644;8.494;2024-01-30T11:43:01;101404.34;;;16.40;72.70
16355;BME280;8287;51.644;8.494;2024-01-30T11:45:30;101396.63;;;16.39;72.16
16355;BME280;8287;51.644;8.494;2024-01-30T11:47:57;101395.03;;;16.46;71.48
16355;BME280;8287;51.644;8.494;2024-01-30T11:50:25;101398.66;;;16.50;72.16
16355;BME280;8287;51.644;8.494;2024-01-30T11:52:53;101391.59;;;16.46;70.92
16355;BME280;8287;51.644;8.494;2024-01-30T11:55:20;101402.44;;;16.41;72.04
16355;BME280;8287;51.644;8.494;2024-01-30T11:57:47;101399.44;;;16.34;72.37
16355;BME280;8287;51.644;8.494;2024-01-30T12:00:15;101408.13;;;16.39;71.66
16355;BME280;8287;51.644;8.494;2024-01-30T12:02:43;101391.91;;;16.44;71.33
16355;BME280;8287;51.644;8.494;2024-01-30T12:05:12;101399.13;;;16.35;71.10
16355;BME280;8287;51.644;8.494;2024-01-30T12:07:39;101402.44;;;16.41;71.51
16355;BME280;8287;51.644;8.494;2024-01-30T12:10:06;101396.31;;;16.40;71.69
16355;BME280;8287;51.644;8.494;2024-01-30T12:12:35;101396.28;;;16.32;72.54
16355;BME280;8287;51.644;8.494;2024-01-30T12:15:02;101392.22;;;16.43;72.47
16355;BME280;8287;51.644;8.494;2024-01-30T12:17:29;101392.19;;;16.34;72.05
16355;BME280;8287;51.644;8.494;2024-01-30T12:20:04;101389.53;;;16.26;72.32
16355;BME280;8287;51.644;8.494;2024-01-30T12:22:33;101396.78;;;16.42;72.43
16355;BME280;8287;51.644;8.494;2024-01-30T12:25:00;101388.31;;;16.40;72.75
16355;BME280;8287;51.644;8.494;2024-01-30T12:27:26;101391.09;;;16.35;73.03
16355;BME280;8287;51.644;8.494;2024-01-30T12:29:56;101398.34;;;16.26;72.66
16355;BME280;8287;51.644;8.494;2024-01-30T12:32:23;101415.00;;;16.32;72.04
16355;BME280;8287;51.644;8.494;2024-01-30T12:34:50;101406.06;;;16.28;72.28
16355;BME280;8287;51.644;8.494;2024-01-30T12:37:17;101411.06;;;16.12;73.11
16355;BME280;8287;51.644;8.494;2024-01-30T12:39:48;101413.13;;;16.15;73.10
16355;BME280;8287;51.644;8.494;2024-01-30T12:42:14;101417.69;;;16.06;72.70
16355;BME280;8287;51.644;8.494;2024-01-30T12:44:41;101418.94;;;16.00;74.14
16355;BME280;8287;51.644;8.494;2024-01-30T12:47:08;101425.09;;;16.18;72.45
16355;BME280;8287;51.644;8.494;2024-01-30T12:49:35;101416.28;;;16.17;71.72
16355;BME280;8287;51.644;8.494;2024-01-30T12:52:01;101422.56;;;16.21;72.65
16355;BME280;8287;51.644;8.494;2024-01-30T12:54:29;101418.94;;;16.17;73.15
16355;BME280;8287;51.644;8.494;2024-01-30T12:56:56;101418.66;;;16.19;72.67
16355;BME280;8287;51.644;8.494;2024-01-30T12:59:23;101426.66;;;16.19;72.50
16355;BME280;8287;51.644;8.494;2024-01-30T13:01:49;101432.97;;;16.14;71.81
16355;BME280;8287;51.644;8.494;2024-01-30T13:04:17;101424.91;;;16.06;72.57
16355;BME280;8287;51.644;8.494;2024-01-30T13:06:44;101420.97;;;16.03;73.29